createdAt,value
2022-09-24T00:01:28.629Z,6.00
2022-09-24T00:04:39.082Z,6.05
2022-09-24T00:07:49.101Z,5.78
2022-09-24T00:11:03.665Z,6.15
2022-09-24T00:14:14.126Z,5.78
2022-09-24T00:17:24.121Z,6.00
2022-09-24T00:20:34.103Z,6.57
2022-09-24T00:23:44.831Z,5.88
2022-09-24T00:26:55.376Z,5.43
2022-09-24T00:30:06.179Z,5.63
2022-09-24T00:33:16.640Z,5.95
2022-09-24T00:36:26.283Z,5.75
2022-09-24T00:39:36.373Z,6.55
2022-09-24T00:42:47.719Z,6.00
2022-09-24T00:46:07.212Z,5.68
2022-09-24T00:49:19.994Z,5.65
2022-09-24T00:52:30.487Z,5.85
2022-09-24T00:55:44.102Z,5.97
2022-09-24T00:58:58.078Z,5.63
2022-09-24T01:02:08.781Z,7.03
2022-09-24T01:05:19.472Z,6.10
2022-09-24T01:08:29.548Z,6.03
2022-09-24T01:11:51.428Z,5.63
2022-09-24T01:15:15.966Z,5.97
2022-09-24T01:18:35.291Z,5.75
2022-09-24T01:21:50.651Z,5.82
2022-09-24T01:25:03.404Z,6.03
2022-09-24T01:28:29.978Z,6.35
2022-09-24T01:31:46.774Z,5.80
2022-09-24T01:35:03.627Z,6.38
2022-09-24T01:38:17.260Z,6.18
2022-09-24T01:41:27.881Z,6.68
2022-09-24T01:44:44.570Z,6.82
2022-09-24T01:47:55.980Z,6.80
2022-09-24T01:51:11.405Z,6.15
2022-09-24T01:54:27.788Z,6.22
2022-09-24T01:57:43.019Z,6.55
2022-09-24T02:00:57.902Z,6.80
2022-09-24T02:04:16.670Z,6.40
2022-09-24T02:07:33.418Z,6.25
2022-09-24T02:10:49.429Z,6.65
2022-09-24T02:14:04.380Z,6.35
2022-09-24T02:17:16.274Z,6.13
2022-09-24T02:20:30.144Z,6.63
2022-09-24T02:23:46.121Z,6.35
2022-09-24T02:26:56.636Z,5.88
2022-09-24T02:30:09.853Z,6.45
2022-09-24T02:33:39.907Z,7.10
2022-09-24T02:36:54.443Z,6.97
2022-09-24T02:40:06.458Z,7.00
2022-09-24T02:43:16.389Z,7.05
2022-09-24T02:46:26.726Z,7.50
2022-09-24T02:49:37.248Z,8.50
2022-09-24T02:52:48.718Z,7.80
2022-09-24T02:56:00.264Z,8.13
2022-09-24T02:59:10.842Z,8.52
2022-09-24T03:02:21.368Z,8.60
2022-09-24T03:05:31.958Z,7.93
2022-09-24T03:08:44.469Z,8.38
2022-09-24T03:11:54.431Z,8.70
2022-09-24T03:15:05.285Z,8.77
2022-09-24T03:18:16.313Z,9.02
2022-09-24T03:21:26.417Z,7.88
2022-09-24T03:24:37.778Z,8.52
2022-09-24T03:27:48.436Z,9.65
2022-09-24T03:31:01.472Z,9.23
2022-09-24T03:34:12.689Z,8.63
2022-09-24T03:37:22.730Z,9.48
2022-09-24T03:40:46.262Z,10.02
2022-09-24T03:43:56.420Z,9.70
2022-09-24T03:47:06.644Z,9.98
2022-09-24T03:50:17.268Z,9.93
2022-09-24T03:53:27.404Z,10.43
2022-09-24T03:56:39.091Z,9.75
2022-09-24T03:59:49.155Z,9.40
2022-09-24T04:02:59.253Z,9.73
2022-09-24T04:06:09.539Z,9.40
2022-09-24T04:09:19.583Z,9.80
2022-09-24T04:12:31.365Z,10.00
2022-09-24T04:15:41.562Z,10.48
2022-09-24T04:18:52.097Z,10.30
2022-09-24T04:22:02.633Z,11.38
2022-09-24T04:25:14.888Z,11.55
2022-09-24T04:28:26.361Z,10.30
2022-09-24T04:31:36.597Z,11.15
2022-09-24T04:34:46.515Z,10.68
2022-09-24T04:37:57.697Z,9.85
2022-09-24T04:41:08.816Z,10.18
2022-09-24T04:44:20.496Z,11.10
2022-09-24T04:47:30.820Z,9.98
2022-09-24T04:50:45.723Z,9.70
2022-09-24T04:53:56.426Z,9.63
2022-09-24T04:57:06.368Z,10.32
2022-09-24T05:00:20.078Z,11.00
2022-09-24T05:03:30.150Z,10.45
2022-09-24T05:06:40.422Z,10.55
2022-09-24T05:09:50.237Z,10.65
2022-09-24T05:13:00.455Z,11.15
2022-09-24T05:16:11.964Z,11.48
2022-09-24T05:19:22.013Z,12.00
2022-09-24T05:22:32.516Z,13.15
2022-09-24T05:25:56.307Z,13.20
2022-09-24T05:29:06.110Z,12.30
2022-09-24T05:32:19.949Z,12.13
2022-09-24T05:35:30.397Z,12.25
2022-09-24T05:38:41.797Z,12.57
2022-09-24T05:41:52.033Z,11.82
2022-09-24T05:45:02.049Z,12.27
2022-09-24T05:48:13.759Z,12.38
2022-09-24T05:51:24.099Z,12.82
2022-09-24T05:54:34.287Z,11.68
2022-09-24T05:57:44.702Z,11.77
2022-09-24T06:00:54.968Z,12.52
2022-09-24T06:04:09.098Z,12.98
2022-09-24T06:07:19.442Z,16.75
2022-09-24T06:10:29.727Z,14.40
2022-09-24T06:13:39.727Z,15.43
2022-09-24T06:16:49.641Z,15.65
2022-09-24T06:20:01.371Z,16.05
2022-09-24T06:23:11.905Z,17.08
2022-09-24T06:26:22.525Z,16.38
2022-09-24T06:29:33.175Z,17.75
2022-09-24T06:32:43.809Z,16.88
2022-09-24T06:35:55.597Z,17.33
2022-09-24T06:39:05.732Z,18.70
2022-09-24T06:42:15.837Z,16.70
2022-09-24T06:45:26.832Z,17.52
2022-09-24T06:48:38.167Z,17.40
2022-09-24T06:51:49.825Z,17.33
2022-09-24T06:54:59.776Z,16.98
2022-09-24T06:58:11.726Z,17.90
2022-09-24T07:01:21.865Z,17.95
2022-09-24T07:04:32.388Z,17.80
2022-09-24T07:07:43.797Z,18.33
2022-09-24T07:10:53.832Z,16.10
2022-09-24T07:14:04.061Z,16.90
2022-09-24T07:17:14.095Z,17.65
2022-09-24T07:20:24.800Z,18.10
2022-09-24T07:23:36.536Z,16.83
2022-09-24T07:26:46.534Z,17.75
2022-09-24T07:29:56.637Z,17.02
2022-09-24T07:33:07.378Z,16.67
2022-09-24T07:36:17.532Z,17.20
2022-09-24T07:39:29.198Z,15.60
2022-09-24T07:42:39.721Z,15.95
2022-09-24T07:45:50.163Z,15.68
2022-09-24T07:49:00.598Z,15.93
2022-09-24T07:52:11.514Z,15.88
2022-09-24T07:55:23.000Z,15.65
2022-09-24T07:58:33.112Z,17.52
2022-09-24T08:01:42.952Z,17.35
2022-09-24T08:04:53.139Z,16.00
2022-09-24T08:08:03.395Z,17.08
2022-09-24T08:11:14.942Z,16.55
2022-09-24T08:14:24.959Z,16.30
2022-09-24T08:17:35.057Z,16.77
2022-09-24T08:20:45.524Z,17.23
2022-09-24T08:23:55.708Z,16.88
2022-09-24T08:27:07.140Z,17.33
2022-09-24T08:30:17.265Z,16.95
2022-09-24T08:33:27.701Z,16.73
2022-09-24T08:36:42.653Z,17.27
2022-09-24T08:39:53.195Z,15.85
2022-09-24T08:43:16.658Z,17.48
2022-09-24T08:46:51.313Z,16.90
2022-09-24T08:50:13.269Z,16.98
2022-09-24T08:53:31.482Z,17.25
2022-09-24T08:56:44.966Z,18.08
2022-09-24T08:59:56.813Z,17.98
2022-09-24T09:03:12.947Z,17.90
2022-09-24T09:06:47.266Z,18.08
2022-09-24T09:10:01.610Z,18.65
2022-09-24T09:13:16.708Z,19.05
2022-09-24T09:16:34.396Z,18.42
2022-09-24T09:19:53.634Z,18.73
2022-09-24T09:23:14.450Z,18.58
2022-09-24T09:26:27.286Z,18.23
2022-09-24T09:29:37.536Z,17.50
2022-09-24T09:33:06.035Z,17.95
2022-09-24T09:36:37.149Z,17.77
2022-09-24T09:39:56.083Z,18.45
2022-09-24T09:43:11.242Z,19.98
2022-09-24T09:46:27.111Z,20.60
2022-09-24T09:49:41.286Z,20.17
2022-09-24T09:52:51.503Z,21.20
2022-09-24T09:56:04.325Z,20.73
2022-09-24T09:59:22.601Z,21.00
2022-09-24T10:02:42.407Z,21.88
2022-09-24T10:05:57.185Z,22.20
2022-09-24T10:09:12.845Z,23.58
2022-09-24T10:12:24.275Z,25.23
2022-09-24T10:15:34.460Z,24.60
2022-09-24T10:18:48.167Z,22.98
2022-09-24T10:22:08.216Z,24.83
2022-09-24T10:25:24.411Z,26.08
2022-09-24T10:28:53.253Z,24.42
2022-09-24T10:32:04.744Z,26.77
2022-09-24T10:35:24.616Z,25.17
2022-09-24T10:38:36.346Z,25.92
2022-09-24T10:41:50.660Z,26.10
2022-09-24T10:45:02.525Z,27.05
2022-09-24T10:48:18.825Z,28.25
2022-09-24T10:51:38.164Z,27.50
2022-09-24T10:54:59.096Z,26.75
2022-09-24T10:58:28.654Z,26.27
2022-09-24T11:01:48.712Z,26.35
2022-09-24T11:05:00.420Z,26.33
2022-09-24T11:08:21.743Z,26.77
2022-09-24T11:11:47.965Z,27.70
2022-09-24T11:15:14.428Z,27.75
2022-09-24T11:18:36.513Z,28.17
2022-09-24T11:22:04.077Z,27.25
2022-09-24T11:25:32.580Z,28.25
2022-09-24T11:29:10.974Z,26.67
2022-09-24T11:35:58.004Z,26.55
2022-09-24T11:39:22.230Z,27.08
2022-09-24T11:42:38.936Z,27.42
2022-09-24T11:46:05.639Z,26.88
2022-09-24T11:49:34.622Z,26.40
2022-09-24T11:52:50.952Z,25.83
2022-09-24T11:56:12.952Z,26.33
2022-09-24T11:59:34.126Z,26.98
2022-09-24T12:02:51.196Z,26.58
2022-09-24T12:06:07.405Z,29.38
2022-09-24T12:09:25.289Z,25.48
2022-09-24T12:12:42.115Z,24.70
2022-09-24T12:15:57.113Z,26.48
2022-09-24T12:19:17.977Z,25.50
2022-09-24T12:22:30.216Z,26.33
2022-09-24T12:25:46.267Z,25.30
2022-09-24T12:29:20.483Z,24.73
2022-09-24T12:32:58.858Z,25.55
2022-09-24T12:36:18.948Z,25.13
2022-09-24T12:39:34.947Z,25.85
2022-09-24T12:42:50.479Z,24.02
2022-09-24T12:45:42.461Z,24.13
2022-09-24T12:48:38.365Z,23.73
2022-09-24T12:51:40.414Z,24.15
2022-09-24T12:54:33.584Z,24.25
2022-09-24T12:57:26.707Z,25.65
2022-09-24T13:00:37.529Z,23.67
2022-09-24T13:03:34.628Z,24.17
2022-09-24T13:06:34.597Z,24.25
2022-09-24T13:09:34.873Z,23.92
2022-09-24T13:12:34.134Z,23.75
2022-09-24T13:15:37.002Z,24.15
2022-09-24T13:18:28.854Z,24.77
2022-09-24T13:21:24.308Z,23.95
2022-09-24T13:24:30.422Z,24.98
2022-09-24T13:27:25.303Z,23.75
2022-09-24T13:30:20.542Z,23.70
2022-09-24T13:33:24.003Z,23.98
2022-09-24T13:36:19.225Z,23.35
2022-09-24T13:39:17.083Z,24.00
2022-09-24T13:42:19.040Z,24.85
2022-09-24T13:45:16.238Z,25.52
2022-09-24T13:48:18.238Z,24.30
2022-09-24T13:51:14.246Z,23.45
2022-09-24T13:54:13.922Z,24.75
2022-09-24T13:57:13.254Z,24.17
2022-09-24T14:00:16.752Z,23.25
2022-09-24T14:03:22.758Z,24.15
2022-09-24T14:06:19.175Z,23.80
2022-09-24T14:09:16.923Z,24.17
2022-09-24T14:12:17.850Z,22.08
2022-09-24T14:15:16.152Z,24.60
2022-09-24T14:18:12.689Z,24.02
2022-09-24T14:21:10.340Z,21.15
2022-09-24T14:24:05.990Z,22.20
2022-09-24T14:27:00.797Z,22.05
2022-09-24T14:29:58.025Z,21.95
2022-09-24T14:32:53.235Z,22.73
2022-09-24T14:35:48.013Z,22.90
2022-09-24T14:38:53.392Z,23.33
2022-09-24T14:41:45.588Z,23.60
2022-09-24T14:44:44.307Z,25.67
2022-09-24T14:47:38.369Z,22.92
2022-09-24T14:50:37.789Z,24.02
2022-09-24T14:53:32.955Z,25.83
2022-09-24T14:56:29.337Z,26.73
2022-09-24T14:59:30.199Z,24.85
2022-09-24T15:02:25.419Z,23.77
2022-09-24T15:05:18.216Z,23.85
2022-09-24T15:08:20.740Z,24.63
2022-09-24T15:11:18.093Z,23.80
2022-09-24T15:14:15.806Z,24.75
2022-09-24T15:17:20.480Z,24.00
2022-09-24T15:20:13.278Z,23.77
2022-09-24T15:23:05.772Z,24.05
2022-09-24T15:25:57.319Z,24.98
2022-09-24T15:28:49.002Z,25.05
2022-09-24T15:31:40.493Z,24.50
2022-09-24T15:34:31.776Z,23.63
2022-09-24T15:37:25.709Z,25.65
2022-09-24T15:40:22.536Z,24.92
2022-09-24T15:43:20.470Z,23.95
2022-09-24T15:46:11.639Z,24.17
2022-09-24T15:49:03.247Z,24.92
2022-09-24T15:51:57.407Z,24.95
2022-09-24T15:54:48.452Z,24.63
2022-09-24T15:57:41.111Z,23.50
2022-09-24T16:00:33.246Z,23.52
2022-09-24T16:03:27.331Z,22.25
2022-09-24T16:06:19.104Z,23.23
2022-09-24T16:09:10.710Z,22.85
2022-09-24T16:12:02.559Z,23.48
2022-09-24T16:14:58.972Z,21.58
2022-09-24T16:17:50.855Z,23.15
2022-09-24T16:20:42.614Z,22.70
2022-09-24T16:23:34.239Z,21.23
2022-09-24T16:26:25.580Z,22.77
2022-09-24T16:29:18.073Z,21.95
2022-09-24T16:32:11.312Z,21.52
2022-09-24T16:35:02.456Z,22.77
2022-09-24T16:37:54.024Z,22.98
2022-09-24T16:40:45.819Z,27.13
2022-09-24T16:43:37.436Z,23.10
2022-09-24T16:46:28.605Z,23.60
2022-09-24T16:49:23.466Z,22.40
2022-09-24T16:52:14.872Z,22.45
2022-09-24T16:55:07.367Z,23.95
2022-09-24T16:57:58.857Z,24.70
2022-09-24T17:00:50.406Z,22.13
2022-09-24T17:03:42.412Z,24.85
2022-09-24T17:06:35.280Z,23.77
2022-09-24T17:09:44.508Z,23.42
2022-09-24T17:12:36.028Z,24.23
2022-09-24T17:15:27.930Z,24.05
2022-09-24T17:18:19.142Z,24.55
2022-09-24T17:21:13.696Z,26.45
2022-09-24T17:24:06.716Z,24.05
2022-09-24T17:26:58.194Z,25.60
2022-09-24T17:29:49.825Z,27.08
2022-09-24T17:32:41.342Z,26.75
2022-09-24T17:35:33.084Z,25.55
2022-09-24T17:38:25.308Z,26.15
2022-09-24T17:41:18.182Z,26.80
2022-09-24T17:44:10.674Z,25.83
2022-09-24T17:47:01.997Z,25.20
2022-09-24T17:49:53.272Z,26.98
2022-09-24T17:52:44.644Z,26.13
2022-09-24T17:55:36.275Z,27.52
2022-09-24T17:58:29.986Z,27.10
2022-09-24T18:01:23.439Z,28.73
2022-09-24T18:04:16.737Z,27.77
2022-09-24T18:07:07.922Z,27.63
2022-09-24T18:09:59.356Z,26.90
2022-09-24T18:12:54.639Z,27.80
2022-09-24T18:15:47.506Z,29.15
2022-09-24T18:18:39.403Z,27.45
2022-09-24T18:21:31.536Z,28.45
2022-09-24T18:24:22.971Z,29.90
2022-09-24T18:27:15.957Z,30.13
2022-09-24T18:30:11.450Z,30.42
2022-09-24T18:33:04.223Z,29.77
2022-09-24T18:35:55.472Z,30.38
2022-09-24T18:38:47.263Z,30.67
2022-09-24T18:41:39.277Z,29.45
2022-09-24T18:44:30.812Z,30.50
2022-09-24T18:47:22.435Z,30.15
2022-09-24T18:50:16.178Z,30.70
2022-09-24T18:53:07.597Z,28.58
2022-09-24T18:55:59.680Z,29.60
2022-09-24T18:58:56.449Z,27.77
2022-09-24T19:01:50.730Z,24.67
2022-09-24T19:04:43.041Z,26.08
2022-09-24T19:07:35.887Z,26.85
2022-09-24T19:10:27.082Z,26.27
2022-09-24T19:13:22.547Z,24.65
2022-09-24T19:16:18.380Z,22.80
2022-09-24T19:19:11.174Z,24.50
2022-09-24T19:22:02.836Z,24.30
2022-09-24T19:24:55.614Z,24.25
2022-09-24T19:27:47.064Z,23.23
2022-09-24T19:30:40.056Z,23.58
2022-09-24T19:33:31.401Z,22.00
2022-09-24T19:36:23.122Z,24.00
2022-09-24T19:39:16.337Z,23.75
2022-09-24T19:42:09.166Z,21.58
2022-09-24T19:45:00.809Z,21.48
2022-09-24T19:47:52.152Z,21.23
2022-09-24T19:50:43.608Z,20.75
2022-09-24T19:53:35.112Z,21.45
2022-09-24T19:56:26.649Z,20.15
2022-09-24T19:59:19.992Z,22.30
2022-09-24T20:02:11.702Z,26.45
2022-09-24T20:05:02.918Z,22.58
2022-09-24T20:07:54.383Z,19.88
2022-09-24T20:10:46.279Z,22.13
2022-09-24T20:13:38.374Z,19.27
2022-09-24T20:16:32.422Z,19.17
2022-09-24T20:19:23.747Z,19.83
2022-09-24T20:22:17.419Z,20.85
2022-09-24T20:25:09.363Z,20.27
2022-09-24T20:27:59.813Z,20.70
2022-09-24T20:30:51.296Z,21.13
2022-09-24T20:33:43.932Z,19.70
2022-09-24T20:36:35.286Z,21.38
2022-09-24T20:39:26.332Z,19.73
2022-09-24T20:42:17.624Z,20.23
2022-09-24T20:45:09.824Z,21.15
2022-09-24T20:48:01.487Z,21.98
2022-09-24T20:50:54.418Z,20.35
2022-09-24T20:53:46.418Z,20.35
2022-09-24T20:56:37.601Z,19.95
2022-09-24T20:59:29.784Z,21.60
2022-09-24T21:02:21.134Z,21.55
2022-09-24T21:05:12.416Z,20.02
2022-09-24T21:08:08.886Z,21.30
2022-09-24T21:11:01.409Z,19.85
2022-09-24T21:13:54.585Z,20.25
2022-09-24T21:16:46.716Z,21.35
2022-09-24T21:19:38.312Z,19.80
2022-09-24T21:22:29.816Z,19.98
2022-09-24T21:25:52.319Z,20.92
2022-09-24T21:28:35.010Z,19.25
2022-09-24T21:31:28.697Z,20.52
2022-09-24T21:34:21.638Z,18.70
2022-09-24T21:37:14.413Z,18.90
2022-09-24T21:40:06.283Z,19.33
2022-09-24T21:43:00.184Z,18.95
2022-09-24T21:45:52.422Z,17.05
2022-09-24T21:48:43.843Z,20.35
2022-09-24T21:51:35.106Z,19.52
2022-09-24T21:54:26.584Z,21.60
2022-09-24T21:57:18.069Z,20.35
2022-09-24T22:00:13.674Z,19.40
2022-09-24T22:03:05.173Z,19.25
2022-09-24T22:05:59.547Z,19.48
2022-09-24T22:08:51.273Z,19.92
2022-09-24T22:11:42.941Z,20.05
2022-09-24T22:14:35.097Z,19.02
2022-09-24T22:17:28.396Z,20.38
2022-09-24T22:20:19.918Z,19.50
2022-09-24T22:23:11.764Z,20.02
2022-09-24T22:26:03.096Z,20.42
2022-09-24T22:28:55.269Z,19.80
2022-09-24T22:31:46.631Z,18.25
2022-09-24T22:34:57.038Z,19.25
2022-09-24T22:37:48.594Z,17.67
2022-09-24T22:40:40.560Z,16.85
2022-09-24T22:43:32.385Z,17.65
2022-09-24T22:46:27.093Z,16.13
2022-09-24T22:49:19.596Z,17.90
2022-09-24T22:52:12.151Z,15.35
2022-09-24T22:55:03.691Z,16.95
2022-09-24T22:57:55.381Z,18.40
2022-09-24T23:00:46.633Z,18.15
2022-09-24T23:03:38.790Z,18.48
2022-09-24T23:06:31.359Z,17.90
2022-09-24T23:09:24.532Z,17.10
2022-09-24T23:12:16.020Z,18.80
2022-09-24T23:15:09.046Z,18.25
2022-09-24T23:18:00.283Z,18.30
2022-09-24T23:20:51.722Z,18.10
2022-09-24T23:23:43.219Z,18.00
2022-09-24T23:26:36.633Z,17.50
2022-09-24T23:29:27.636Z,18.35
2022-09-24T23:32:19.879Z,17.65
2022-09-24T23:35:10.845Z,18.38
2022-09-24T23:38:02.762Z,17.33
2022-09-24T23:40:54.083Z,16.70
2022-09-24T23:43:47.158Z,18.35
2022-09-24T23:46:38.455Z,17.25
2022-09-24T23:49:29.876Z,16.77
2022-09-24T23:52:21.417Z,16.23
2022-09-24T23:55:12.927Z,16.63
2022-09-24T23:58:04.283Z,16.67
